Time;durP1;ratioP1;P1;durP2;ratioP2;P2;SDS_P1;SDS_P2;PMS_P1;PMS_P2;Temp;Humidity;BMP_temperature;BMP_pressure;BME280_temperature;BME280_humidity;BME280_pressure;Samples;Min_cycle;Max_cycle;Signal;HPM_P1;HPM_P2
2023/06/30 09:47:26;;;;;;;34.17;20.98;;;;;;;18.60;100.00;96226.31;2084325;28;20559;-61
2023/06/30 09:49:30;;;;;;;35.88;20.65;;;;;;;18.71;98.63;96223.63;2085328;28;20554;-61
2023/06/30 09:51:39;;;;;;;33.15;22.60;;;;;;;18.68;97.90;96225.72;2084474;28;20569;-61
2023/06/30 09:52:40;;;;;;;36.08;21.58;;;;;;;18.81;96.75;96230.81;2079803;28;20199;-61
2023/06/30 09:53:42;;;;;;;35.33;22.20;;;;;;;18.80;97.41;96229.13;2078323;28;20311;-61
2023/06/30 09:54:44;;;;;;;40.47;22.23;;;;;;;18.84;97.38;96223.44;2079435;28;20265;-61
2023/06/30 09:55:50;;;;;;;33.63;22.17;;;;;;;18.99;97.29;96223.97;2078631;28;20632;-61
2023/06/30 09:57:05;;;;;;;39.63;22.65;;;;;;;19.12;96.40;96223.75;2081058;28;20205;-61
2023/06/30 09:58:10;;;;;;;44.85;25.42;;;;;;;19.12;98.09;96223.75;2079550;28;20200;-61
2023/06/30 09:59:12;;;;;;;42.42;25.42;;;;;;;19.08;96.43;96225.84;2072374;28;21037;-61
2023/06/30 10:00:16;;;;;;;44.40;24.50;;;;;;;19.14;96.78;96226.28;2070816;28;20722;-61
2023/06/30 10:01:36;;;;;;;39.45;24.73;;;;;;;19.14;96.80;96224.47;2072035;28;20190;-61
2023/06/30 10:02:39;;;;;;;43.83;26.40;;;;;;;19.22;97.38;96227.28;2070030;28;20256;-61
2023/06/30 10:03:54;;;;;;;45.53;26.08;;;;;;;19.15;95.77;96223.50;2069724;28;20208;-61
2023/06/30 10:06:21;;;;;;;39.63;26.15;;;;;;;19.12;96.90;96228.22;2083270;28;20599;-61
2023/06/30 10:07:24;;;;;;;42.00;25.48;;;;;;;19.13;97.85;96232.53;2075334;28;20719;-61
2023/06/30 10:09:50;;;;;;;41.13;26.60;;;;;;;18.94;96.68;96223.50;2092625;27;20575;-61
2023/06/30 10:12:00;;;;;;;41.65;27.30;;;;;;;18.92;97.74;96233.41;2084615;28;20901;-61
2023/06/30 11:49:48;;;;;;;41.65;25.05;;;;;;;19.51;92.15;96213.31;2085729;28;21062;-60
2023/06/30 11:52:07;;;;;;;48.15;26.48;;;;;;;19.51;90.85;96217.78;2088512;28;20571;-60
2023/06/30 11:53:09;;;;;;;40.55;25.73;;;;;;;19.61;89.28;96218.66;2088232;28;20189;-60
2023/06/30 11:54:13;;;;;;;38.85;24.90;;;;;;;19.66;89.49;96218.25;2083606;28;20215;-60
2023/06/30 11:55:16;;;;;;;47.90;25.95;;;;;;;19.68;89.49;96218.94;2082954;28;20774;-60
2023/06/30 11:56:18;;;;;;;39.42;23.83;;;;;;;19.66;88.64;96221.72;2084057;28;20684;-60
2023/06/30 11:57:20;;;;;;;36.25;23.38;;;;;;;19.84;88.92;96215.81;2081704;28;20243;-60
2023/06/30 11:58:21;;;;;;;39.50;25.05;;;;;;;19.75;86.83;96215.59;2081091;28;20199;-60
2023/06/30 11:59:24;;;;;;;44.95;25.45;;;;;;;19.62;86.46;96219.47;2074924;28;21151;-60
2023/06/30 12:00:27;;;;;;;46.38;26.08;;;;;;;19.72;87.33;96220.38;2073912;28;20198;-60
2023/06/30 12:01:28;;;;;;;44.42;27.13;;;;;;;19.81;85.99;96218.72;2073149;28;20708;-60
2023/06/30 12:02:30;;;;;;;39.58;24.77;;;;;;;19.82;87.13;96215.06;2076768;28;20819;-60
2023/06/30 12:03:31;;;;;;;37.88;25.17;;;;;;;19.75;87.62;96210.31;2073546;28;20284;-60
2023/06/30 12:04:36;;;;;;;42.65;26.10;;;;;;;19.94;88.94;96215.84;2072270;28;20255;-60
2023/06/30 12:05:39;;;;;;;47.47;26.83;;;;;;;20.06;87.89;96215.56;2073759;28;20209;-60
2023/06/30 12:06:47;;;;;;;44.67;25.58;;;;;;;19.97;86.35;96215.53;2073068;28;20304;-60
2023/06/30 12:07:50;;;;;;;41.60;24.75;;;;;;;20.06;85.36;96218.22;2075313;28;20242;-61
2023/06/30 12:08:57;;;;;;;34.95;23.60;;;;;;;19.93;85.55;96216.78;2073594;28;20264;-60
2023/06/30 12:10:02;;;;;;;37.50;24.15;;;;;;;19.69;85.44;96223.25;2073648;28;20209;-61
2023/06/30 12:11:06;;;;;;;39.78;24.23;;;;;;;19.66;86.60;96226.19;2073742;28;20331;-61
2023/06/30 12:12:08;;;;;;;38.70;25.15;;;;;;;19.48;86.55;96221.53;2075183;28;20668;-61
2023/06/30 12:13:09;;;;;;;40.58;24.33;;;;;;;19.29;86.59;96224.09;2073616;28;20256;-61
2023/06/30 12:14:15;;;;;;;47.45;26.25;;;;;;;19.22;87.27;96224.66;2073121;28;20810;-61
2023/06/30 12:19:44;;;;;;;40.25;24.50;;;;;;;19.47;86.74;96224.31;2088991;28;20555;-60
2023/06/30 12:21:51;;;;;;;44.72;26.75;;;;;;;19.69;88.66;96226.78;2102243;27;20574;-61
2023/06/30 12:22:53;;;;;;;41.13;24.27;;;;;;;19.64;88.24;96225.47;2100388;28;20187;-61
2023/06/30 12:23:56;;;;;;;33.95;23.27;;;;;;;19.81;86.45;96227.47;2088964;28;20224;-61
2023/06/30 12:24:59;;;;;;;39.83;24.70;;;;;;;19.79;87.32;96223.28;2084471;28;20200;-61
2023/06/30 12:26:00;;;;;;;40.78;25.30;;;;;;;20.04;88.20;96228.09;2080250;28;20718;-61
2023/06/30 12:27:04;;;;;;;43.42;24.58;;;;;;;20.00;86.50;96228.53;2083866;28;20707;-61
2023/06/30 12:28:06;;;;;;;39.67;24.33;;;;;;;20.17;87.80;96222.53;2079486;28;20752;-61
2023/06/30 12:29:08;;;;;;;39.05;25.25;;;;;;;20.26;87.23;96222.69;2084716;28;20760;-61
2023/06/30 12:30:14;;;;;;;43.35;25.95;;;;;;;20.42;85.08;96216.81;2090065;28;20204;-61
2023/06/30 12:31:16;;;;;;;40.17;24.88;;;;;;;20.51;85.63;96216.81;2090037;28;20261;-61
2023/06/30 12:32:17;;;;;;;40.63;24.98;;;;;;;20.63;85.79;96230.78;2089917;28;20215;-61
2023/06/30 12:33:19;;;;;;;38.55;23.95;;;;;;;20.42;84.18;96219.47;2088997;28;20196;-61
2023/06/30 12:34:34;;;;;;;38.85;24.17;;;;;;;20.46;84.96;96220.88;2089041;28;20219;-61
2023/06/30 12:35:37;;;;;;;38.22;24.42;;;;;;;20.47;84.21;96218.06;2089426;28;20239;-62
2023/06/30 12:36:42;;;;;;;44.97;28.83;;;;;;;20.53;83.52;96224.63;2092470;28;20200;-61
2023/06/30 12:37:44;;;;;;;42.70;24.35;;;;;;;20.42;83.05;96215.00;2087080;28;20266;-62
2023/06/30 12:38:45;;;;;;;44.35;27.75;;;;;;;20.53;83.27;96216.66;2086873;28;20293;-61
2023/06/30 12:39:47;;;;;;;37.72;24.45;;;;;;;20.64;82.87;96221.81;2089882;28;20280;-62
2023/06/30 12:40:50;;;;;;;39.70;23.90;;;;;;;20.74;82.88;96221.03;2092301;28;20278;-62
2023/06/30 12:41:52;;;;;;;43.42;24.60;;;;;;;20.78;82.77;96223.22;2091820;28;20239;-62
2023/06/30 12:42:54;;;;;;;36.53;22.65;;;;;;;20.87;83.18;96222.38;2089675;28;20224;-62
2023/06/30 12:43:56;;;;;;;40.25;23.83;;;;;;;20.87;82.89;96227.69;2089333;28;20858;-62
2023/06/30 12:44:58;;;;;;;41.75;24.60;;;;;;;20.88;82.09;96224.03;2089793;28;20196;-62
2023/06/30 12:45:59;;;;;;;40.72;22.80;;;;;;;20.85;81.15;96228.81;2090782;28;20210;-62
2023/06/30 12:47:03;;;;;;;41.65;24.25;;;;;;;20.77;81.38;96226.84;2091640;28;20663;-62
2023/06/30 12:48:04;;;;;;;39.33;22.90;;;;;;;20.80;81.49;96223.09;2090521;28;20765;-62
2023/06/30 12:49:06;;;;;;;44.95;24.88;;;;;;;20.91;81.35;96224.75;2092691;28;20269;-62
2023/06/30 12:50:08;;;;;;;45.88;23.05;;;;;;;21.08;80.48;96226.66;2091302;28;20667;-62
2023/06/30 12:51:10;;;;;;;37.47;23.05;;;;;;;21.18;79.69;96218.69;2091538;28;20196;-62
2023/06/30 12:52:11;;;;;;;39.50;24.55;;;;;;;21.41;80.96;96215.63;2092255;28;20196;-62
2023/06/30 12:53:13;;;;;;;41.53;23.40;;;;;;;21.44;80.33;96218.00;2092209;28;20196;-62
2023/06/30 12:54:14;;;;;;;37.45;24.23;;;;;;;21.33;79.58;96222.53;2090413;28;20353;-62
2023/06/30 12:55:20;;;;;;;42.72;23.33;;;;;;;21.38;79.54;96216.75;2090623;28;20200;-62
2023/06/30 12:56:21;;;;;;;35.92;22.23;;;;;;;21.37;78.45;96220.41;2093683;28;20195;-62
2023/06/30 12:57:23;;;;;;;39.00;24.00;;;;;;;21.54;77.52;96224.94;2090779;28;20196;-62
2023/06/30 12:58:24;;;;;;;33.78;21.92;;;;;;;21.75;77.52;96217.72;2086782;28;20201;-62
2023/06/30 12:59:29;;;;;;;60.20;37.20;;;;;;;21.90;77.04;96215.41;2088451;28;20204;-62
2023/06/30 13:00:31;;;;;;;35.97;22.52;;;;;;;21.99;77.29;96215.34;2090430;28;20231;-63
2023/06/30 13:01:33;;;;;;;45.60;29.52;;;;;;;22.21;77.58;96215.03;2088195;28;20213;-63
2023/06/30 13:02:34;;;;;;;46.15;27.88;;;;;;;22.20;76.25;96218.72;2090304;28;20253;-63
2023/06/30 13:03:36;;;;;;;39.20;25.90;;;;;;;22.16;74.77;96212.84;2089262;28;20220;-63
2023/06/30 13:04:37;;;;;;;39.42;23.60;;;;;;;22.53;75.28;96209.22;2086916;28;20197;-62
2023/06/30 13:05:39;;;;;;;35.85;22.60;;;;;;;22.59;74.72;96211.28;2088649;28;20278;-62
2023/06/30 13:06:40;;;;;;;37.67;23.35;;;;;;;22.81;73.79;96209.09;2091651;28;20860;-62
2023/06/30 13:07:42;;;;;;;41.58;23.90;;;;;;;23.08;73.32;96224.06;2089061;28;20642;-62
2023/06/30 13:08:44;;;;;;;37.63;23.92;;;;;;;22.82;71.13;96208.94;2092727;28;20275;-62
2023/06/30 13:09:47;;;;;;;34.85;20.90;;;;;;;22.58;73.75;96200.78;2092173;28;20196;-62
2023/06/30 13:10:49;;;;;;;36.63;22.80;;;;;;;22.72;74.22;96210.88;2087217;28;20893;-62
2023/06/30 13:11:51;;;;;;;35.00;22.73;;;;;;;22.86;72.56;96214.78;2087097;28;20224;-62
2023/06/30 13:12:52;;;;;;;38.33;23.75;;;;;;;22.72;73.73;96215.38;2090948;28;20196;-62
2023/06/30 13:13:54;;;;;;;37.90;22.98;;;;;;;22.70;74.72;96212.00;2097896;28;20808;-62
2023/06/30 13:14:56;;;;;;;37.15;22.20;;;;;;;22.74;73.16;96202.72;2105887;28;20281;-62
2023/06/30 13:15:58;;;;;;;39.70;23.95;;;;;;;22.46;73.68;96210.81;2089632;28;20261;-63
2023/06/30 13:16:59;;;;;;;36.70;23.27;;;;;;;22.31;72.58;96214.00;2086982;28;20192;-62
2023/06/30 13:18:01;;;;;;;39.17;23.52;;;;;;;22.23;73.87;96211.25;2087234;28;20740;-63
2023/06/30 13:19:02;;;;;;;38.83;24.13;;;;;;;22.15;72.28;96206.69;2089913;28;20235;-62
2023/06/30 13:20:07;;;;;;;35.47;22.35;;;;;;;22.18;74.03;96210.88;2089554;28;20201;-62
2023/06/30 13:21:09;;;;;;;37.20;22.10;;;;;;;22.37;74.47;96215.22;2086668;28;20301;-63
2023/06/30 13:22:13;;;;;;;41.80;22.58;;;;;;;22.37;72.88;96209.09;2086564;28;20209;-62
2023/06/30 13:23:14;;;;;;;38.97;24.50;;;;;;;22.23;71.86;96202.44;2090252;28;20216;-63
2023/06/30 13:24:36;;;;;;;38.03;23.58;;;;;;;22.48;72.78;96207.00;2090905;28;20668;-62
2023/06/30 13:25:37;;;;;;;54.47;30.48;;;;;;;22.26;72.36;96202.13;2090766;28;20208;-62
2023/06/30 13:26:39;;;;;;;45.85;31.42;;;;;;;21.95;73.72;96206.00;2090646;28;20655;-62
2023/06/30 13:27:41;;;;;;;36.20;23.20;;;;;;;21.88;76.77;96218.22;2090661;28;20192;-62
2023/06/30 13:28:42;;;;;;;35.35;21.92;;;;;;;21.52;79.18;96215.44;2086336;28;20691;-61
2023/06/30 13:29:46;;;;;;;38.17;21.00;;;;;;;21.59;78.57;96216.56;2087316;28;20204;-62
2023/06/30 13:30:47;;;;;;;31.52;21.05;;;;;;;21.51;79.41;96213.78;2090314;28;20196;-62
2023/06/30 13:31:49;;;;;;;32.90;21.50;;;;;;;21.43;79.88;96216.31;2089556;28;20188;-62
2023/06/30 13:32:51;;;;;;;36.60;20.70;;;;;;;21.32;79.66;96215.53;2087100;28;20318;-62
2023/06/30 13:33:52;;;;;;;29.05;19.40;;;;;;;21.58;79.39;96220.19;2084835;28;20221;-62
2023/06/30 13:34:54;;;;;;;33.90;20.27;;;;;;;21.51;79.77;96211.13;2083479;28;20197;-62
2023/06/30 13:35:56;;;;;;;33.35;20.15;;;;;;;21.33;79.06;96209.25;2083705;28;20198;-62
2023/06/30 13:36:57;;;;;;;39.40;20.55;;;;;;;21.19;79.80;96205.25;2084480;28;20200;-62
2023/06/30 13:37:59;;;;;;;38.53;20.85;;;;;;;21.80;77.78;96203.03;2085624;28;20652;-62
2023/06/30 13:39:02;;;;;;;30.25;18.85;;;;;;;22.11;76.93;96209.81;2085034;28;20227;-62
2023/06/30 13:40:04;;;;;;;32.92;20.00;;;;;;;22.29;76.52;96205.31;2084648;28;20768;-62
2023/06/30 13:41:05;;;;;;;39.00;20.70;;;;;;;22.16;76.08;96207.53;2084972;28;20194;-62
2023/06/30 13:42:08;;;;;;;37.13;21.13;;;;;;;22.12;75.82;96207.00;2084108;28;20255;-62
2023/06/30 13:43:09;;;;;;;35.03;20.63;;;;;;;21.74;77.17;96211.59;2084739;28;20226;-62
2023/06/30 13:44:11;;;;;;;34.63;21.83;;;;;;;21.73;76.92;96211.75;2085103;28;20216;-62
2023/06/30 13:45:13;;;;;;;36.72;22.30;;;;;;;21.35;77.47;96209.91;2085237;28;20663;-62
2023/06/30 13:46:15;;;;;;;47.63;22.75;;;;;;;21.44;77.50;96215.34;2081227;28;20865;-62
2023/06/30 13:47:16;;;;;;;41.28;21.83;;;;;;;21.61;77.74;96208.44;2084126;28;20348;-62
2023/06/30 13:48:18;;;;;;;44.97;22.88;;;;;;;21.82;78.05;96208.19;2082381;28;20358;-62
2023/06/30 13:49:19;;;;;;;39.75;21.73;;;;;;;21.85;76.21;96208.72;2083216;28;20232;-62
2023/06/30 13:50:21;;;;;;;40.75;25.42;;;;;;;22.07;75.66;96205.78;2082493;28;20197;-61
2023/06/30 13:51:23;;;;;;;40.90;23.13;;;;;;;22.50;73.74;96202.38;2084447;28;20551;-62
2023/06/30 13:52:24;;;;;;;45.92;23.15;;;;;;;22.72;73.65;96210.03;2081091;28;20707;-62
2023/06/30 13:53:26;;;;;;;39.33;21.40;;;;;;;22.89;72.91;96203.81;2081022;28;20552;-62
2023/06/30 13:54:29;;;;;;;41.53;21.63;;;;;;;22.83;72.44;96212.47;2086817;28;20196;-62
2023/06/30 13:55:31;;;;;;;35.88;21.88;;;;;;;22.84;72.66;96206.13;2085667;28;20196;-62
2023/06/30 13:56:36;;;;;;;30.92;20.45;;;;;;;22.92;71.88;96198.19;2084246;28;20197;-62
2023/06/30 13:57:37;;;;;;;35.03;20.92;;;;;;;23.16;72.34;96202.03;2082790;28;20197;-62
2023/06/30 13:58:40;;;;;;;31.55;20.15;;;;;;;22.75;72.57;96213.19;2081705;28;20204;-62
2023/06/30 13:59:42;;;;;;;35.08;20.17;;;;;;;22.92;71.30;96214.16;2082108;28;20243;-62
2023/06/30 14:00:46;;;;;;;34.05;19.17;;;;;;;23.08;72.36;96213.41;2084193;28;20204;-62
2023/06/30 14:01:48;;;;;;;36.45;21.58;;;;;;;23.11;72.53;96215.78;2084880;28;20197;-62
2023/06/30 14:02:49;;;;;;;32.58;17.88;;;;;;;22.87;71.71;96211.16;2085052;28;20635;-62
2023/06/30 14:03:51;;;;;;;32.72;20.08;;;;;;;22.68;72.13;96214.84;2080352;28;20225;-62
2023/06/30 14:04:53;;;;;;;32.28;19.63;;;;;;;22.48;72.59;96212.34;2083701;28;20299;-62
2023/06/30 14:05:57;;;;;;;27.48;17.08;;;;;;;22.61;73.40;96203.13;2083825;28;20533;-62
2023/06/30 14:06:59;;;;;;;31.77;17.98;;;;;;;22.73;73.58;96199.22;2082684;28;20193;-62
2023/06/30 14:08:00;;;;;;;36.58;18.60;;;;;;;22.57;71.62;96199.13;2086004;28;20196;-62
2023/06/30 14:09:02;;;;;;;27.30;17.15;;;;;;;22.65;71.60;96201.81;2084513;28;20232;-62
2023/06/30 14:10:04;;;;;;;33.47;19.52;;;;;;;22.73;70.55;96201.03;2085607;28;20216;-62
2023/06/30 14:11:05;;;;;;;35.35;22.17;;;;;;;22.42;71.75;96199.66;2081082;28;20208;-62
2023/06/30 14:12:07;;;;;;;34.67;24.25;;;;;;;22.62;71.77;96194.16;2083529;28;20204;-62
2023/06/30 14:13:09;;;;;;;35.88;27.38;;;;;;;22.70;70.64;96198.72;2083947;28;20204;-62
2023/06/30 14:14:10;;;;;;;33.20;22.60;;;;;;;22.99;70.89;96201.06;2083269;28;20712;-62
2023/06/30 14:15:12;;;;;;;32.13;22.73;;;;;;;22.80;71.80;96204.75;2083919;28;20227;-61
2023/06/30 14:16:13;;;;;;;40.00;26.08;;;;;;;22.63;70.97;96201.97;2084978;28;20234;-61
2023/06/30 14:17:15;;;;;;;38.97;29.50;;;;;;;22.59;70.98;96205.09;2084931;28;20710;-62
2023/06/30 14:18:17;;;;;;;52.50;36.20;;;;;;;22.06;71.25;96196.97;2083846;28;20197;-62
2023/06/30 14:19:18;;;;;;;35.63;29.73;;;;;;;22.19;71.89;96199.25;2083110;28;20236;-62
2023/06/30 14:20:20;;;;;;;49.42;33.17;;;;;;;21.96;73.44;96194.38;2084604;28;20201;-61
2023/06/30 14:21:21;;;;;;;42.75;29.17;;;;;;;21.99;73.29;96193.25;2082683;28;20706;-61
2023/06/30 14:22:23;;;;;;;51.90;36.72;;;;;;;22.01;72.42;96197.41;2082501;28;20209;-61
2023/06/30 14:23:24;;;;;;;42.72;28.38;;;;;;;22.21;72.61;96194.63;2081990;28;20679;-62
2023/06/30 14:24:25;;;;;;;68.30;53.53;;;;;;;21.68;71.89;96201.56;2084300;28;20197;-62
2023/06/30 14:25:27;;;;;;;52.60;41.05;;;;;;;21.45;72.67;96195.78;2080758;28;20347;-61
2023/06/30 14:26:29;;;;;;;42.42;30.83;;;;;;;21.65;72.93;96193.91;2084611;28;20224;-61
2023/06/30 14:27:31;;;;;;;41.58;27.75;;;;;;;22.05;72.02;96189.16;2086015;28;20192;-61
2023/06/30 14:28:32;;;;;;;38.45;27.83;;;;;;;21.96;72.50;96190.91;2085919;28;20309;-61
2023/06/30 14:29:36;;;;;;;40.83;26.50;;;;;;;21.99;72.49;96194.09;2080897;28;20668;-61
2023/06/30 14:30:38;;;;;;;38.75;29.83;;;;;;;21.64;73.21;96182.41;2080711;28;20216;-61
2023/06/30 14:31:39;;;;;;;39.95;27.65;;;;;;;21.54;73.91;96187.75;2082314;28;20212;-61
2023/06/30 14:32:41;;;;;;;41.38;27.98;;;;;;;21.24;73.62;96191.53;2080809;28;20193;-61
2023/06/30 14:33:43;;;;;;;50.28;31.40;;;;;;;21.08;74.96;96189.50;2080186;28;20292;-61
2023/06/30 14:34:44;;;;;;;38.88;27.35;;;;;;;21.43;74.15;96185.28;2082821;28;20569;-61
2023/06/30 14:35:46;;;;;;;41.72;29.92;;;;;;;21.40;73.47;96182.94;2080930;28;20197;-61
2023/06/30 14:36:48;;;;;;;35.53;24.30;;;;;;;21.29;74.04;96183.97;2081337;28;20534;-61
2023/06/30 14:37:49;;;;;;;41.75;25.83;;;;;;;21.36;74.54;96184.22;2083251;28;20619;-61
2023/06/30 14:38:51;;;;;;;42.08;30.00;;;;;;;21.48;72.83;96183.06;2083464;28;20216;-61
2023/06/30 14:39:52;;;;;;;41.40;29.77;;;;;;;21.44;73.42;96183.47;2083847;28;20189;-61
2023/06/30 14:40:54;;;;;;;38.50;27.55;;;;;;;21.31;74.11;96176.69;2083462;28;20189;-61
2023/06/30 14:41:55;;;;;;;39.17;26.63;;;;;;;21.47;73.60;96181.38;2084665;28;20188;-61
2023/06/30 14:43:03;;;;;;;38.28;26.02;;;;;;;21.27;73.80;96172.66;2085024;28;20285;-61
2023/06/30 14:44:05;;;;;;;45.10;33.30;;;;;;;21.35;74.70;96177.22;2082199;28;20794;-61
2023/06/30 14:45:07;;;;;;;34.38;25.35;;;;;;;21.28;75.19;96187.63;2082949;28;20201;-61
2023/06/30 14:46:08;;;;;;;31.13;18.90;;;;;;;21.13;74.66;96178.47;2084593;28;20197;-61
2023/06/30 14:47:10;;;;;;;35.53;19.83;;;;;;;21.15;76.06;96181.78;2082953;28;20201;-60
2023/06/30 14:48:11;;;;;;;27.98;17.80;;;;;;;20.99;74.18;96179.75;2080696;28;20228;-60
2023/06/30 14:49:13;;;;;;;34.67;23.65;;;;;;;20.89;73.82;96182.44;2080235;28;20250;-61
2023/06/30 14:50:14;;;;;;;32.70;23.77;;;;;;;21.00;75.38;96176.97;2083593;28;20280;-61
2023/06/30 14:51:16;;;;;;;36.50;23.25;;;;;;;21.20;74.74;96179.53;2080537;28;20660;-61
2023/06/30 14:52:18;;;;;;;30.45;18.98;;;;;;;21.14;75.09;96180.97;2080789;28;20208;-61
2023/06/30 14:53:20;;;;;;;43.28;25.60;;;;;;;20.91;75.10;96188.41;2084215;28;20196;-61
2023/06/30 14:54:21;;;;;;;30.23;17.80;;;;;;;21.01;75.22;96178.63;2083935;28;20224;-61
2023/06/30 14:55:23;;;;;;;30.55;19.27;;;;;;;21.30;74.49;96172.34;2084582;28;20201;-62
2023/06/30 14:56:24;;;;;;;29.08;18.40;;;;;;;21.80;73.90;96173.81;2083858;28;20204;-61
2023/06/30 14:57:26;;;;;;;28.77;17.55;;;;;;;21.59;72.33;96178.56;2083522;28;20219;-61
2023/06/30 14:58:27;;;;;;;28.17;17.27;;;;;;;21.81;72.64;96178.13;2084001;28;20232;-61
2023/06/30 14:59:29;;;;;;;30.75;19.80;;;;;;;21.77;72.13;96173.25;2085309;28;20203;-61
2023/06/30 15:00:33;;;;;;;30.85;18.45;;;;;;;21.72;72.35;96175.53;2085814;28;20204;-61
2023/06/30 15:01:34;;;;;;;37.13;23.52;;;;;;;21.81;71.61;96177.28;2083488;28;20237;-61
2023/06/30 15:02:36;;;;;;;46.08;31.23;;;;;;;21.77;72.33;96182.06;2084930;28;20197;-61
2023/06/30 15:03:38;;;;;;;40.97;29.80;;;;;;;21.91;71.45;96179.88;2081180;28;20259;-61
2023/06/30 15:04:39;;;;;;;37.67;25.35;;;;;;;21.99;70.88;96174.63;2082385;28;20999;-61
2023/06/30 15:05:41;;;;;;;42.85;30.17;;;;;;;22.30;70.93;96171.59;2084866;28;20247;-63
2023/06/30 15:06:43;;;;;;;31.92;18.33;;;;;;;22.50;70.64;96166.97;2080806;28;20426;-62
2023/06/30 15:07:45;;;;;;;33.05;21.55;;;;;;;22.57;70.03;96168.00;2081110;28;20208;-62
2023/06/30 15:08:48;;;;;;;28.17;19.17;;;;;;;22.80;69.58;96168.34;2082522;28;20232;-62
2023/06/30 15:09:49;;;;;;;30.20;18.70;;;;;;;22.70;69.17;96167.59;2085145;28;20280;-62
2023/06/30 15:10:51;;;;;;;32.78;20.63;;;;;;;22.34;69.95;96155.16;2085365;28;20348;-62
2023/06/30 15:11:52;;;;;;;37.00;26.05;;;;;;;22.62;69.90;96157.75;2084480;28;20716;-62
2023/06/30 15:12:54;;;;;;;34.03;22.92;;;;;;;22.50;70.18;96164.31;2083469;28;20266;-62
2023/06/30 15:13:55;;;;;;;35.92;23.00;;;;;;;22.47;70.50;96167.28;2084117;28;20235;-62
2023/06/30 15:14:57;;;;;;;37.70;26.08;;;;;;;22.28;70.44;96163.78;2080615;28;20229;-62
2023/06/30 15:15:58;;;;;;;42.20;30.38;;;;;;;22.27;69.38;96161.25;2082476;28;20200;-64
2023/06/30 15:17:00;;;;;;;40.38;30.85;;;;;;;22.29;69.71;96159.28;2083209;28;20200;-64
2023/06/30 15:18:01;;;;;;;48.50;35.67;;;;;;;22.22;70.05;96164.41;2080605;28;20292;-64
2023/06/30 15:19:03;;;;;;;43.78;33.05;;;;;;;22.29;70.71;96160.13;2080473;28;20223;-64
2023/06/30 15:20:05;;;;;;;44.08;35.70;;;;;;;22.64;70.14;96163.75;2080688;28;20232;-64
2023/06/30 15:21:07;;;;;;;44.70;36.30;;;;;;;22.61;69.76;96169.41;2081062;28;20206;-64
2023/06/30 15:22:08;;;;;;;48.53;37.30;;;;;;;22.43;70.63;96158.75;2082759;28;20274;-64
2023/06/30 15:23:10;;;;;;;74.40;53.47;;;;;;;22.09;70.85;96163.94;2082120;28;20569;-64
2023/06/30 15:24:11;;;;;;;58.55;41.28;;;;;;;21.97;71.63;96166.81;2082550;28;20228;-64
2023/06/30 15:25:27;;;;;;;62.08;47.67;;;;;;;21.41;71.81;96162.50;2080612;28;20730;-64
2023/06/30 15:26:29;;;;;;;65.03;44.17;;;;;;;21.66;73.21;96167.19;2085401;28;20319;-64
2023/06/30 15:27:32;;;;;;;60.35;43.95;;;;;;;21.75;72.46;96161.94;2083196;28;20192;-64
2023/06/30 15:28:33;;;;;;;51.30;40.80;;;;;;;21.96;73.12;96162.47;2080171;28;20201;-64
2023/06/30 15:29:35;;;;;;;50.70;38.47;;;;;;;21.45;72.95;96161.25;2080721;28;20201;-64
2023/06/30 15:30:37;;;;;;;57.97;44.55;;;;;;;21.34;74.18;96171.09;2081681;28;20208;-63
2023/06/30 15:31:39;;;;;;;45.50;34.63;;;;;;;21.47;74.37;96167.25;2080560;28;20197;-63
2023/06/30 15:32:41;;;;;;;55.80;38.22;;;;;;;21.39;74.85;96170.63;2080511;28;20529;-63
2023/06/30 15:33:43;;;;;;;50.15;34.55;;;;;;;21.54;74.89;96176.28;2082958;28;20224;-64
2023/06/30 15:34:44;;;;;;;41.08;28.25;;;;;;;21.36;75.25;96179.72;2083830;28;20193;-64
2023/06/30 15:35:46;;;;;;;42.53;31.90;;;;;;;21.07;75.33;96165.75;2083334;28;20339;-63
2023/06/30 15:36:48;;;;;;;50.97;35.92;;;;;;;21.13;75.20;96178.47;2083887;28;20201;-64
2023/06/30 15:37:50;;;;;;;53.42;36.53;;;;;;;20.92;74.51;96170.69;2081219;28;20247;-64
2023/06/30 15:38:51;;;;;;;54.17;40.78;;;;;;;21.11;74.29;96175.09;2080332;28;20308;-64
2023/06/30 15:39:53;;;;;;;52.58;38.47;;;;;;;21.13;74.63;96179.28;2083795;28;20199;-64
2023/06/30 15:40:54;;;;;;;56.78;41.30;;;;;;;20.97;74.85;96174.56;2083795;28;20200;-63
2023/06/30 15:42:03;;;;;;;56.65;37.10;;;;;;;20.79;74.70;96171.03;2084567;28;20200;-64
2023/06/30 15:43:05;;;;;;;60.05;45.75;;;;;;;20.38;76.82;96174.69;2083473;28;20834;-64
2023/06/30 15:44:06;;;;;;;43.45;29.77;;;;;;;20.66;76.63;96179.25;2082081;28;20517;-63
